Terminal Aerodrome Forecast
Issued by NWS

Home | Current Version | Previous Version | Text Only | Print | Product List | Glossary On
Versions: 1 2 3 4 5 6 7 8 9 10 11 12 13 14 15 16 17 18 19
000
FTUS42 KJAX 271700
TAFCRG
TAF
KCRG 271739Z 2718/2818 07006KT P6SM SCT030 BKN040
     FM280400 00000KT 5SM BR BKN015
     FM280900 00000KT 2SM BR BKN008
     FM281500 21005KT P6SM BKN015=

USA.gov is the U.S. government's official web portal to all federal, state and local government web resources and services.